Time;durP1;ratioP1;P1;durP2;ratioP2;P2;SDS_P1;SDS_P2;PMS_P1;PMS_P2;Temp;Humidity;BMP_temperature;BMP_pressure;BME280_temperature;BME280_humidity;BME280_pressure;Samples;Min_cycle;Max_cycle;Signal;HPM_P1;HPM_P2
2023/12/25 00:00:47;;;;;;;2.53;0.75;;;;;;;;;;6068591;23;20187;-88
2023/12/25 00:03:59;;;;;;;2.00;0.65;;;;;;;;;;6069321;23;20171;-90
2023/12/25 00:07:11;;;;;;;2.15;0.50;;;;;;;;;;6069807;23;20171;-89
2023/12/25 00:10:24;;;;;;;1.58;0.57;;;;;;;;;;6077808;23;20198;-89
2023/12/25 00:13:36;;;;;;;1.52;0.60;;;;;;;;;;6098218;23;20178;-92
2023/12/25 00:16:48;;;;;;;1.02;0.60;;;;;;;;;;6097800;23;20170;-93
2023/12/25 00:19:59;;;;;;;2.05;0.60;;;;;;;;;;6097338;23;20297;-89
2023/12/25 00:23:10;;;;;;;3.33;0.70;;;;;;;;;;6096931;23;20206;-91
2023/12/25 00:26:27;;;;;;;1.52;0.68;;;;;;;;;;6097209;23;20250;-91
2023/12/25 00:29:47;;;;;;;1.25;0.60;;;;;;;;;;6097647;23;20236;-90
2023/12/25 00:32:59;;;;;;;2.97;0.90;;;;;;;;;;6097771;23;20182;-91
2023/12/25 00:36:12;;;;;;;5.40;1.00;;;;;;;;;;6096804;23;20173;-93
2023/12/25 00:39:24;;;;;;;1.55;0.90;;;;;;;;;;6096876;23;20246;-89
2023/12/25 00:42:37;;;;;;;1.48;0.90;;;;;;;;;;6095756;23;20254;-88
2023/12/25 00:45:48;;;;;;;2.30;1.10;;;;;;;;;;6097714;23;20178;-90
2023/12/25 00:48:59;;;;;;;2.05;0.95;;;;;;;;;;6097007;23;20166;-88
2023/12/25 00:52:14;;;;;;;3.08;1.02;;;;;;;;;;6100474;23;20178;-89
2023/12/25 00:55:26;;;;;;;2.15;1.02;;;;;;;;;;6097174;23;20177;-88
2023/12/25 00:58:40;;;;;;;4.75;1.48;;;;;;;;;;6097821;23;20230;-89
2023/12/25 01:01:52;;;;;;;5.50;1.60;;;;;;;;;;6097430;23;20169;-88
2023/12/25 01:05:04;;;;;;;5.03;1.20;;;;;;;;;;6098391;23;20169;-91
2023/12/25 01:08:16;;;;;;;3.08;0.70;;;;;;;;;;6097703;23;20238;-91
2023/12/25 01:11:28;;;;;;;3.10;1.15;;;;;;;;;;6095292;23;20193;-87
2023/12/25 01:14:44;;;;;;;1.83;0.88;;;;;;;;;;6095519;23;20174;-88
2023/12/25 01:17:56;;;;;;;2.38;1.20;;;;;;;;;;6095664;23;20182;-89
2023/12/25 01:21:08;;;;;;;4.90;1.50;;;;;;;;;;6096691;23;20174;-88
2023/12/25 01:24:20;;;;;;;4.97;1.65;;;;;;;;;;6095568;23;20617;-86
2023/12/25 01:27:32;;;;;;;3.63;1.30;;;;;;;;;;6095831;23;20312;-90
2023/12/25 01:30:45;;;;;;;3.60;1.38;;;;;;;;;;6095622;23;20226;-92
2023/12/25 01:33:57;;;;;;;3.30;1.20;;;;;;;;;;6095111;23;20174;-87
2023/12/25 01:37:09;;;;;;;2.67;1.13;;;;;;;;;;6094975;23;20318;-88
2023/12/25 01:40:21;;;;;;;4.68;1.42;;;;;;;;;;6095544;23;20245;-90
2023/12/25 01:43:34;;;;;;;2.35;1.00;;;;;;;;;;6094961;23;20169;-88
2023/12/25 01:46:47;;;;;;;2.17;1.00;;;;;;;;;;6095623;23;20174;-91
2023/12/25 01:50:00;;;;;;;2.97;1.20;;;;;;;;;;6096367;23;20226;-93
2023/12/25 01:53:12;;;;;;;2.28;1.20;;;;;;;;;;6095799;23;20173;-91
2023/12/25 01:56:24;;;;;;;1.98;1.10;;;;;;;;;;6096766;23;20177;-93
2023/12/25 01:59:36;;;;;;;4.50;1.75;;;;;;;;;;6096487;23;20197;-90
2023/12/25 02:02:49;;;;;;;8.60;2.17;;;;;;;;;;6096808;23;20177;-88
2023/12/25 02:06:01;;;;;;;4.05;1.65;;;;;;;;;;6096068;23;20284;-89
2023/12/25 02:09:13;;;;;;;4.75;1.50;;;;;;;;;;6097099;23;20202;-92
2023/12/25 02:12:25;;;;;;;8.70;2.05;;;;;;;;;;6096476;23;20174;-91
2023/12/25 02:15:36;;;;;;;4.47;1.63;;;;;;;;;;6094471;23;20255;-92
2023/12/25 02:18:51;;;;;;;3.47;1.35;;;;;;;;;;6094519;23;20250;-87
2023/12/25 02:22:03;;;;;;;1.83;1.05;;;;;;;;;;6096313;23;20194;-91
2023/12/25 02:25:16;;;;;;;2.65;1.02;;;;;;;;;;6095792;23;20170;-89
2023/12/25 02:28:29;;;;;;;2.13;1.08;;;;;;;;;;6094845;23;20157;-93
2023/12/25 02:31:41;;;;;;;2.15;1.00;;;;;;;;;;6095880;23;20169;-89
2023/12/25 02:34:52;;;;;;;2.65;0.82;;;;;;;;;;6096399;23;20158;-90
2023/12/25 02:38:04;;;;;;;2.97;1.20;;;;;;;;;;6095320;23;20174;-92
2023/12/25 02:41:16;;;;;;;4.35;1.50;;;;;;;;;;6096522;23;20169;-90
2023/12/25 02:44:29;;;;;;;4.97;1.38;;;;;;;;;;6095306;23;20174;-87
2023/12/25 02:47:41;;;;;;;2.03;0.90;;;;;;;;;;6095612;23;20173;-90
2023/12/25 02:50:53;;;;;;;4.82;1.00;;;;;;;;;;6096660;23;20170;-91
2023/12/25 02:54:05;;;;;;;5.88;1.50;;;;;;;;;;6095118;23;20170;-90
2023/12/25 02:57:17;;;;;;;2.60;0.85;;;;;;;;;;6096172;23;20222;-90
2023/12/25 03:00:31;;;;;;;3.40;0.82;;;;;;;;;;6094557;23;20260;-87
2023/12/25 03:03:43;;;;;;;4.25;1.23;;;;;;;;;;6094635;23;20177;-91
2023/12/25 03:06:55;;;;;;;2.97;1.00;;;;;;;;;;6096990;23;20177;-89
2023/12/25 03:10:08;;;;;;;1.70;0.80;;;;;;;;;;6097150;23;20258;-90
2023/12/25 03:13:20;;;;;;;2.05;1.00;;;;;;;;;;6097293;23;20173;-91
2023/12/25 03:16:33;;;;;;;1.70;0.82;;;;;;;;;;6098566;23;20177;-92
2023/12/25 03:19:45;;;;;;;1.10;0.60;;;;;;;;;;6098672;23;20193;-90
2023/12/25 03:22:57;;;;;;;0.95;0.63;;;;;;;;;;6098459;23;20614;-92
2023/12/25 03:26:08;;;;;;;0.68;0.52;;;;;;;;;;6097420;23;20247;-91
2023/12/25 03:29:21;;;;;;;4.05;0.70;;;;;;;;;;6097894;23;20174;-93
2023/12/25 03:32:35;;;;;;;2.22;0.70;;;;;;;;;;6096872;23;20240;-92
2023/12/25 03:35:47;;;;;;;0.90;0.60;;;;;;;;;;6097425;23;20177;-89
2023/12/25 03:38:59;;;;;;;2.05;0.63;;;;;;;;;;6096204;23;20222;-90
2023/12/25 03:42:12;;;;;;;1.05;0.60;;;;;;;;;;6097032;23;20182;-86
2023/12/25 03:45:23;;;;;;;1.02;0.70;;;;;;;;;;6098781;23;20174;-91
2023/12/25 03:48:36;;;;;;;1.55;0.75;;;;;;;;;;6096546;23;20198;-87
2023/12/25 03:51:48;;;;;;;0.95;0.77;;;;;;;;;;6097592;23;20153;-90
2023/12/25 03:55:00;;;;;;;1.23;0.80;;;;;;;;;;6096428;23;20177;-89
2023/12/25 03:58:12;;;;;;;1.35;0.73;;;;;;;;;;6098074;23;20242;-89
2023/12/25 04:01:24;;;;;;;3.40;0.90;;;;;;;;;;6097299;23;20172;-90
2023/12/25 04:04:40;;;;;;;2.70;1.02;;;;;;;;;;6096988;23;20177;-89
2023/12/25 04:07:52;;;;;;;2.58;0.80;;;;;;;;;;6095172;23;20174;-89
2023/12/25 04:11:04;;;;;;;1.63;0.95;;;;;;;;;;6095780;23;20229;-91
2023/12/25 04:14:15;;;;;;;1.45;0.80;;;;;;;;;;6096300;23;20246;-89
2023/12/25 04:17:28;;;;;;;2.78;0.73;;;;;;;;;;6096410;23;20226;-88
2023/12/25 04:20:41;;;;;;;2.33;0.80;;;;;;;;;;6096063;23;20721;-91
2023/12/25 04:23:53;;;;;;;2.95;0.77;;;;;;;;;;6096345;23;20235;-91
2023/12/25 04:27:05;;;;;;;0.88;0.70;;;;;;;;;;6097198;23;20190;-89
2023/12/25 04:30:21;;;;;;;2.33;0.70;;;;;;;;;;6095834;23;20170;-89
2023/12/25 04:33:33;;;;;;;3.70;0.80;;;;;;;;;;6095965;23;20170;-90
2023/12/25 04:36:46;;;;;;;1.35;0.63;;;;;;;;;;6095724;23;20187;-88
2023/12/25 04:39:59;;;;;;;3.17;1.00;;;;;;;;;;6096168;23;20205;-89
2023/12/25 04:43:11;;;;;;;1.65;0.82;;;;;;;;;;6095226;23;20252;-88
2023/12/25 04:46:22;;;;;;;4.35;0.80;;;;;;;;;;6096557;23;20174;-92
2023/12/25 04:49:34;;;;;;;3.08;0.80;;;;;;;;;;6094557;23;20165;-86
2023/12/25 04:52:47;;;;;;;1.27;0.88;;;;;;;;;;6096000;23;20169;-90
2023/12/25 04:55:59;;;;;;;3.25;0.90;;;;;;;;;;6095919;23;20178;-90
2023/12/25 04:59:10;;;;;;;2.95;0.82;;;;;;;;;;6095938;23;20170;-90
2023/12/25 05:02:22;;;;;;;1.33;0.70;;;;;;;;;;6094699;23;20174;-91
2023/12/25 05:05:34;;;;;;;1.65;0.93;;;;;;;;;;6095964;23;20173;-92
2023/12/25 05:08:48;;;;;;;1.98;0.95;;;;;;;;;;6095972;23;20238;-91
2023/12/25 05:12:01;;;;;;;2.17;0.88;;;;;;;;;;6096100;23;20189;-88
2023/12/25 05:15:13;;;;;;;2.25;0.95;;;;;;;;;;6095356;23;20182;-90
2023/12/25 05:18:24;;;;;;;1.85;0.95;;;;;;;;;;6095399;23;20178;-88
2023/12/25 05:21:36;;;;;;;3.17;0.90;;;;;;;;;;6096213;23;20224;-89
2023/12/25 05:24:49;;;;;;;3.83;1.35;;;;;;;;;;6094986;23;20178;-92
2023/12/25 05:28:01;;;;;;;6.60;1.30;;;;;;;;;;6096245;23;20498;-90
2023/12/25 05:31:13;;;;;;;3.03;1.50;;;;;;;;;;6095452;23;20219;-87
2023/12/25 05:34:25;;;;;;;3.78;1.25;;;;;;;;;;6094786;23;20166;-91
2023/12/25 05:37:37;;;;;;;5.40;1.15;;;;;;;;;;6096869;23;20170;-90
2023/12/25 05:40:50;;;;;;;4.63;1.17;;;;;;;;;;6096383;23;20192;-91
2023/12/25 05:44:02;;;;;;;3.47;1.20;;;;;;;;;;6093877;23;20625;-89
2023/12/25 05:47:14;;;;;;;1.60;1.00;;;;;;;;;;6097097;23;20211;-90
2023/12/25 05:50:26;;;;;;;2.55;0.98;;;;;;;;;;6095990;23;20186;-91
2023/12/25 05:53:38;;;;;;;2.28;1.20;;;;;;;;;;6096661;23;20174;-89
2023/12/25 05:56:51;;;;;;;1.73;1.13;;;;;;;;;;6097297;23;20506;-90
2023/12/25 06:00:04;;;;;;;8.57;1.40;;;;;;;;;;6095580;23;20197;-88
2023/12/25 06:03:23;;;;;;;1.83;1.20;;;;;;;;;;6112701;23;20178;-91
2023/12/25 06:06:34;;;;;;;3.00;1.48;;;;;;;;;;6096102;23;20173;-91
2023/12/25 06:09:46;;;;;;;3.35;1.55;;;;;;;;;;6096406;23;20170;-89
2023/12/25 06:12:59;;;;;;;3.20;1.45;;;;;;;;;;6095253;23;20229;-86
2023/12/25 06:16:11;;;;;;;2.92;1.85;;;;;;;;;;6096040;23;20178;-89
2023/12/25 06:19:24;;;;;;;5.30;2.17;;;;;;;;;;6094834;23;20170;-90
2023/12/25 06:22:36;;;;;;;4.75;1.63;;;;;;;;;;6095777;23;20194;-89
2023/12/25 06:25:50;;;;;;;2.85;1.70;;;;;;;;;;6094357;23;20222;-90
2023/12/25 06:29:03;;;;;;;3.28;1.73;;;;;;;;;;6096030;23;20250;-92
2023/12/25 06:32:15;;;;;;;2.42;1.50;;;;;;;;;;6096168;23;20166;-91
2023/12/25 06:35:30;;;;;;;4.35;1.85;;;;;;;;;;6095455;23;20181;-92
2023/12/25 06:38:42;;;;;;;4.40;1.83;;;;;;;;;;6095519;23;20173;-90
2023/12/25 06:41:54;;;;;;;2.60;1.67;;;;;;;;;;6096771;23;20272;-89
2023/12/25 06:45:08;;;;;;;7.63;1.70;;;;;;;;;;6096762;23;20222;-89
2023/12/25 06:48:20;;;;;;;3.33;1.88;;;;;;;;;;6094843;23;20295;-90
2023/12/25 06:51:32;;;;;;;4.57;1.88;;;;;;;;;;6094088;23;20183;-92
2023/12/25 06:54:43;;;;;;;9.23;1.48;;;;;;;;;;6094221;23;20177;-90
2023/12/25 06:57:58;;;;;;;6.18;1.80;;;;;;;;;;6095400;23;20229;-94
2023/12/25 07:01:11;;;;;;;2.75;1.70;;;;;;;;;;6095301;23;20599;-89
2023/12/25 07:04:23;;;;;;;4.85;1.83;;;;;;;;;;6094308;23;20249;-89
2023/12/25 07:07:35;;;;;;;4.15;1.83;;;;;;;;;;6093549;23;20156;-89
2023/12/25 07:10:47;;;;;;;2.80;1.75;;;;;;;;;;6095261;23;20193;-90
2023/12/25 07:13:59;;;;;;;8.35;2.00;;;;;;;;;;6095614;23;20166;-92
2023/12/25 07:17:13;;;;;;;3.67;2.20;;;;;;;;;;6096874;23;20517;-92
2023/12/25 07:20:25;;;;;;;5.95;1.80;;;;;;;;;;6095400;23;20649;-89
2023/12/25 07:23:37;;;;;;;3.72;2.03;;;;;;;;;;6095466;23;20154;-88
2023/12/25 07:26:48;;;;;;;4.85;2.05;;;;;;;;;;6095363;23;20242;-91
2023/12/25 07:30:00;;;;;;;4.05;1.95;;;;;;;;;;6095277;23;20178;-90
2023/12/25 07:33:13;;;;;;;3.83;1.90;;;;;;;;;;6093791;23;20173;-90
2023/12/25 07:36:25;;;;;;;8.38;2.13;;;;;;;;;;6095189;23;20182;-90
2023/12/25 07:39:37;;;;;;;3.55;1.75;;;;;;;;;;6095417;23;20191;-92
2023/12/25 07:42:52;;;;;;;3.70;2.00;;;;;;;;;;6093435;23;20228;-88
2023/12/25 07:46:06;;;;;;;3.95;1.80;;;;;;;;;;6093694;23;20170;-91
2023/12/25 07:49:19;;;;;;;4.63;2.10;;;;;;;;;;6092041;23;20166;-87
2023/12/25 07:52:31;;;;;;;6.18;1.80;;;;;;;;;;6100962;23;20173;-93
2023/12/25 07:55:42;;;;;;;3.28;1.70;;;;;;;;;;6095673;23;20170;-88
2023/12/25 07:58:55;;;;;;;2.90;1.77;;;;;;;;;;6095752;23;20174;-91
2023/12/25 08:02:07;;;;;;;4.10;2.10;;;;;;;;;;6096557;23;20231;-91
2023/12/25 08:05:20;;;;;;;5.35;2.15;;;;;;;;;;6097742;23;20162;-89
2023/12/25 08:08:32;;;;;;;5.53;1.98;;;;;;;;;;6096400;23;20229;-92
2023/12/25 08:11:44;;;;;;;3.92;1.75;;;;;;;;;;6097400;23;20241;-92
2023/12/25 08:14:56;;;;;;;3.17;1.80;;;;;;;;;;6097932;23;20174;-91
2023/12/25 08:18:08;;;;;;;6.70;2.00;;;;;;;;;;6096918;23;20173;-89
2023/12/25 08:21:23;;;;;;;17.00;5.22;;;;;;;;;;6097483;23;20249;-89
2023/12/25 08:24:35;;;;;;;5.97;2.53;;;;;;;;;;6097210;23;20173;-88
2023/12/25 08:27:48;;;;;;;4.90;2.45;;;;;;;;;;6096771;23;20253;-88
2023/12/25 08:31:00;;;;;;;4.53;2.50;;;;;;;;;;6096250;23;20166;-90
2023/12/25 08:34:11;;;;;;;6.03;3.13;;;;;;;;;;6096491;23;20170;-89
2023/12/25 08:37:24;;;;;;;3.75;2.17;;;;;;;;;;6096544;23;20174;-89
2023/12/25 08:40:35;;;;;;;2.88;1.63;;;;;;;;;;6094930;23;20193;-88
2023/12/25 08:43:47;;;;;;;5.82;3.33;;;;;;;;;;6096854;23;20269;-92
2023/12/25 08:46:59;;;;;;;13.77;6.70;;;;;;;;;;6096635;23;20158;-90
2023/12/25 08:50:11;;;;;;;46.30;16.70;;;;;;;;;;6094552;23;20178;-90
2023/12/25 08:53:25;;;;;;;32.67;10.45;;;;;;;;;;6098478;23;20194;-92
2023/12/25 08:56:37;;;;;;;114.18;34.28;;;;;;;;;;6097866;23;20170;-90
2023/12/25 08:59:50;;;;;;;26.27;8.75;;;;;;;;;;6097324;23;20173;-89
2023/12/25 09:03:02;;;;;;;17.45;6.28;;;;;;;;;;6098771;23;20174;-89
2023/12/25 09:06:14;;;;;;;18.67;7.97;;;;;;;;;;6096572;23;20174;-88
2023/12/25 09:09:28;;;;;;;10.98;4.60;;;;;;;;;;6098725;23;20771;-93
2023/12/25 09:12:40;;;;;;;27.15;8.85;;;;;;;;;;6095430;23;20607;-92
2023/12/25 09:15:51;;;;;;;22.85;7.97;;;;;;;;;;6096962;23;20166;-91
2023/12/25 09:19:04;;;;;;;11.38;3.15;;;;;;;;;;6096181;23;20218;-90
2023/12/25 09:22:17;;;;;;;4.50;2.17;;;;;;;;;;6111698;23;20269;-92
2023/12/25 09:25:30;;;;;;;7.60;1.98;;;;;;;;;;6094891;23;20161;-94
2023/12/25 09:28:42;;;;;;;5.05;2.28;;;;;;;;;;6096000;23;20190;-92
2023/12/25 09:31:58;;;;;;;4.38;2.53;;;;;;;;;;6097193;23;20166;-90
2023/12/25 09:35:12;;;;;;;6.40;2.40;;;;;;;;;;6102774;23;20210;-91
2023/12/25 09:38:24;;;;;;;70.68;18.48;;;;;;;;;;6097849;23;20658;-92
2023/12/25 09:41:39;;;;;;;47.10;12.48;;;;;;;;;;6098148;23;20174;-93
2023/12/25 09:44:53;;;;;;;5.93;2.33;;;;;;;;;;6113317;23;20197;-93
2023/12/25 09:48:05;;;;;;;2.38;1.70;;;;;;;;;;6098103;23;20195;-91
2023/12/25 09:51:19;;;;;;;3.90;1.58;;;;;;;;;;6096494;23;20169;-91
2023/12/25 09:54:31;;;;;;;3.92;1.35;;;;;;;;;;6097230;23;20165;-93
2023/12/25 09:57:45;;;;;;;4.10;1.40;;;;;;;;;;6096206;23;20154;-89
2023/12/25 10:00:57;;;;;;;4.55;1.33;;;;;;;;;;6096188;23;20189;-88
2023/12/25 10:04:09;;;;;;;4.88;1.38;;;;;;;;;;6095011;23;20195;-92
2023/12/25 10:07:21;;;;;;;3.90;1.70;;;;;;;;;;6095512;23;20174;-94
2023/12/25 10:10:33;;;;;;;4.07;2.00;;;;;;;;;;6094975;23;20193;-91
2023/12/25 10:13:48;;;;;;;5.43;1.55;;;;;;;;;;6097748;23;20170;-90
2023/12/25 10:17:00;;;;;;;2.13;1.25;;;;;;;;;;6099772;23;20223;-91
2023/12/25 10:20:19;;;;;;;2.95;1.25;;;;;;;;;;6099099;23;20174;-91
2023/12/25 10:23:31;;;;;;;5.50;1.20;;;;;;;;;;6096956;23;20173;-92
2023/12/25 10:26:43;;;;;;;2.45;1.05;;;;;;;;;;6097156;23;20173;-90
2023/12/25 10:29:57;;;;;;;4.80;2.70;;;;;;;;;;6081254;23;20174;-88
2023/12/25 10:33:10;;;;;;;2.97;1.10;;;;;;;;;;6096960;23;20220;-90
2023/12/25 10:36:26;;;;;;;2.60;1.23;;;;;;;;;;6095325;23;20406;-92
2023/12/25 10:39:40;;;;;;;2.65;1.10;;;;;;;;;;6094569;23;20184;-91
2023/12/25 10:42:53;;;;;;;1.52;0.93;;;;;;;;;;6094912;23;20450;-89
2023/12/25 10:46:06;;;;;;;2.70;1.17;;;;;;;;;;6092025;23;20177;-93
2023/12/25 10:49:18;;;;;;;2.72;1.20;;;;;;;;;;6094084;23;20253;-91
2023/12/25 10:52:30;;;;;;;2.00;1.00;;;;;;;;;;6090758;23;20166;-91
2023/12/25 10:55:43;;;;;;;2.17;1.13;;;;;;;;;;6091626;23;20618;-90
2023/12/25 10:58:57;;;;;;;2.90;1.13;;;;;;;;;;6093410;23;20169;-92
2023/12/25 11:02:13;;;;;;;3.72;1.55;;;;;;;;;;6092086;23;20284;-87
2023/12/25 11:05:25;;;;;;;3.35;1.40;;;;;;;;;;6093960;23;20174;-90
2023/12/25 11:08:37;;;;;;;160.63;69.53;;;;;;;;;;6094779;23;20177;-88
2023/12/25 11:11:49;;;;;;;7.15;3.78;;;;;;;;;;6095058;23;20238;-89
2023/12/25 11:15:02;;;;;;;4.70;1.35;;;;;;;;;;6093091;23;20181;-88
2023/12/25 11:18:18;;;;;;;2.30;0.98;;;;;;;;;;6094432;23;20166;-90
2023/12/25 11:21:30;;;;;;;1.85;1.17;;;;;;;;;;6092262;23;20278;-89
2023/12/25 11:24:42;;;;;;;5.80;1.60;;;;;;;;;;6092789;23;20174;-91
2023/12/25 11:27:54;;;;;;;4.32;1.70;;;;;;;;;;6093759;23;20168;-94
2023/12/25 11:31:07;;;;;;;4.28;1.35;;;;;;;;;;6093235;23;20606;-92
2023/12/25 11:34:21;;;;;;;8.10;2.42;;;;;;;;;;6091509;23;20185;-89
2023/12/25 11:37:33;;;;;;;3.30;1.10;;;;;;;;;;6091435;23;20178;-90
2023/12/25 11:40:48;;;;;;;12.93;3.53;;;;;;;;;;6093463;23;20186;-91
2023/12/25 11:44:06;;;;;;;2.78;1.60;;;;;;;;;;6091567;23;20166;-92
2023/12/25 11:47:28;;;;;;;1.98;1.05;;;;;;;;;;6090335;23;20614;-91
2023/12/25 11:50:43;;;;;;;3.67;1.65;;;;;;;;;;6094369;23;20190;-90
2023/12/25 11:53:58;;;;;;;3.17;1.27;;;;;;;;;;6093345;23;20169;-93
2023/12/25 11:57:19;;;;;;;2.10;1.40;;;;;;;;;;6092179;23;20226;-88
2023/12/25 12:00:32;;;;;;;3.22;1.85;;;;;;;;;;6092767;23;20177;-89
2023/12/25 12:03:43;;;;;;;5.35;2.72;;;;;;;;;;6092446;23;20240;-90
2023/12/25 12:06:57;;;;;;;4.13;1.65;;;;;;;;;;6093322;23;20169;-92
2023/12/25 12:10:09;;;;;;;2.75;1.42;;;;;;;;;;6092249;23;20192;-90
2023/12/25 12:13:21;;;;;;;6.65;3.47;;;;;;;;;;6091863;23;20261;-92
2023/12/25 12:16:35;;;;;;;5.45;2.65;;;;;;;;;;6093883;23;20169;-91
2023/12/25 12:19:46;;;;;;;4.57;2.30;;;;;;;;;;6091818;23;20294;-93
2023/12/25 12:23:04;;;;;;;5.30;2.65;;;;;;;;;;6098347;23;20193;-89
2023/12/25 12:26:18;;;;;;;4.97;1.80;;;;;;;;;;6099345;23;20218;-89
2023/12/25 12:29:30;;;;;;;2.67;1.30;;;;;;;;;;6091984;23;20173;-93
2023/12/25 12:32:45;;;;;;;2.90;1.33;;;;;;;;;;6094775;23;20173;-91
2023/12/25 12:35:57;;;;;;;4.32;1.70;;;;;;;;;;6092184;23;20174;-91
2023/12/25 12:39:10;;;;;;;1.77;1.08;;;;;;;;;;6094857;23;20174;-90
2023/12/25 12:42:23;;;;;;;7.20;2.20;;;;;;;;;;6090776;23;20209;-90
2023/12/25 12:45:35;;;;;;;4.05;1.55;;;;;;;;;;6094427;23;20170;-93
2023/12/25 12:48:46;;;;;;;5.28;1.27;;;;;;;;;;6092093;23;20174;-92
2023/12/25 12:51:57;;;;;;;5.88;1.90;;;;;;;;;;6091064;23;20173;-93
2023/12/25 12:55:10;;;;;;;3.42;1.60;;;;;;;;;;6091208;23;20169;-92
2023/12/25 12:58:22;;;;;;;4.10;1.98;;;;;;;;;;6090249;23;20199;-93
2023/12/25 13:01:34;;;;;;;3.45;1.60;;;;;;;;;;6092728;23;20194;-93
2023/12/25 13:04:46;;;;;;;4.10;1.80;;;;;;;;;;6093240;23;20177;-90
2023/12/25 13:07:58;;;;;;;4.57;2.63;;;;;;;;;;6093999;23;20286;-91
2023/12/25 13:11:12;;;;;;;4.65;1.83;;;;;;;;;;6092257;23;20215;-91
2023/12/25 13:14:24;;;;;;;3.10;1.80;;;;;;;;;;6094268;23;20185;-91
2023/12/25 13:17:36;;;;;;;2.88;1.83;;;;;;;;;;6093357;23;20271;-91
2023/12/25 13:20:48;;;;;;;4.57;1.80;;;;;;;;;;6092559;23;20166;-91
2023/12/25 13:24:01;;;;;;;3.67;2.00;;;;;;;;;;6091820;23;20187;-88
2023/12/25 13:27:14;;;;;;;4.90;2.20;;;;;;;;;;6092581;23;20170;-91
2023/12/25 13:30:26;;;;;;;6.03;2.22;;;;;;;;;;6093587;23;20166;-91
2023/12/25 13:33:42;;;;;;;7.07;2.90;;;;;;;;;;6094784;23;20172;-92
2023/12/25 13:36:54;;;;;;;4.68;2.83;;;;;;;;;;6094420;23;20194;-90
2023/12/25 13:40:09;;;;;;;8.95;3.00;;;;;;;;;;6094349;23;20169;-92
2023/12/25 13:43:24;;;;;;;8.38;4.25;;;;;;;;;;6094898;23;20472;-92
2023/12/25 13:46:36;;;;;;;8.00;3.03;;;;;;;;;;6095336;23;20528;-88
2023/12/25 13:49:47;;;;;;;6.90;1.80;;;;;;;;;;6092572;23;20294;-90
2023/12/25 13:53:03;;;;;;;4.18;2.00;;;;;;;;;;6093435;23;20174;-89
2023/12/25 13:56:15;;;;;;;5.40;2.78;;;;;;;;;;6092809;23;20179;-90
2023/12/25 13:59:28;;;;;;;6.18;2.97;;;;;;;;;;6093872;23;20246;-88
2023/12/25 14:02:40;;;;;;;17.35;6.55;;;;;;;;;;6093785;23;20222;-92
2023/12/25 14:05:52;;;;;;;14.05;6.40;;;;;;;;;;6094539;23;20154;-90
2023/12/25 14:09:04;;;;;;;5.07;2.65;;;;;;;;;;6095293;23;20178;-92
2023/12/25 14:12:19;;;;;;;3.97;2.28;;;;;;;;;;6092328;23;20169;-92
2023/12/25 14:15:32;;;;;;;6.32;3.28;;;;;;;;;;6092404;23;20170;-91
2023/12/25 14:18:43;;;;;;;11.02;3.17;;;;;;;;;;6093817;23;20153;-91
2023/12/25 14:21:55;;;;;;;11.85;3.70;;;;;;;;;;6094391;23;20174;-90
2023/12/25 14:25:12;;;;;;;11.25;5.22;;;;;;;;;;6093438;23;20174;-93
2023/12/25 14:28:25;;;;;;;9.88;4.53;;;;;;;;;;6093901;23;20187;-90
2023/12/25 14:31:38;;;;;;;4.55;2.35;;;;;;;;;;6092782;23;20190;-90
2023/12/25 14:34:50;;;;;;;8.80;3.65;;;;;;;;;;6094317;23;20240;-90
2023/12/25 14:38:01;;;;;;;8.68;4.28;;;;;;;;;;6093587;23;20194;-94
2023/12/25 14:41:13;;;;;;;7.28;3.95;;;;;;;;;;6093304;23;20236;-93
2023/12/25 14:44:24;;;;;;;8.60;4.38;;;;;;;;;;6094027;23;20173;-91
2023/12/25 14:47:39;;;;;;;10.70;4.70;;;;;;;;;;6092579;23;20657;-90
2023/12/25 14:50:51;;;;;;;8.07;4.07;;;;;;;;;;6092938;23;20170;-94
2023/12/25 14:54:04;;;;;;;8.02;4.10;;;;;;;;;;6091619;23;20174;-90
2023/12/25 14:57:19;;;;;;;7.35;3.80;;;;;;;;;;6089941;23;20170;-90
2023/12/25 15:00:30;;;;;;;7.25;3.78;;;;;;;;;;6092499;23;20202;-92
2023/12/25 15:03:44;;;;;;;10.32;4.30;;;;;;;;;;6091942;23;20194;-92
2023/12/25 15:06:55;;;;;;;8.98;4.10;;;;;;;;;;6092483;23;20621;-91
2023/12/25 15:10:08;;;;;;;7.53;5.00;;;;;;;;;;6090560;23;20197;-91
2023/12/25 15:13:20;;;;;;;7.40;3.88;;;;;;;;;;6090415;23;20162;-90
2023/12/25 15:16:32;;;;;;;8.55;4.70;;;;;;;;;;6090276;23;20283;-91
2023/12/25 15:19:47;;;;;;;7.55;3.60;;;;;;;;;;6090296;23;20189;-89
2023/12/25 15:22:59;;;;;;;5.63;2.72;;;;;;;;;;6090878;23;20335;-91
2023/12/25 15:26:16;;;;;;;6.35;3.30;;;;;;;;;;6094333;23;20174;-90
2023/12/25 15:29:28;;;;;;;23.65;10.15;;;;;;;;;;6096142;23;20178;-90
2023/12/25 15:32:39;;;;;;;17.45;8.05;;;;;;;;;;6106237;23;20506;-89
2023/12/25 15:35:52;;;;;;;55.13;18.45;;;;;;;;;;6092565;23;20182;-92
2023/12/25 15:39:04;;;;;;;14.85;5.93;;;;;;;;;;6092440;23;20199;-92
2023/12/25 15:42:16;;;;;;;14.55;6.65;;;;;;;;;;6092871;23;20178;-92
2023/12/25 15:45:27;;;;;;;13.38;6.80;;;;;;;;;;6091155;23;20174;-94
2023/12/25 15:48:38;;;;;;;12.40;6.35;;;;;;;;;;6094087;23;20299;-90
2023/12/25 15:51:54;;;;;;;11.35;4.97;;;;;;;;;;6092079;23;20617;-90
2023/12/25 15:55:05;;;;;;;7.45;3.90;;;;;;;;;;6091159;23;20174;-90
2023/12/25 15:58:17;;;;;;;6.97;3.35;;;;;;;;;;6092389;23;20170;-89
2023/12/25 16:01:29;;;;;;;6.20;3.00;;;;;;;;;;6093663;23;20170;-89
2023/12/25 16:04:41;;;;;;;7.13;2.30;;;;;;;;;;6090180;23;20181;-92
2023/12/25 16:08:00;;;;;;;8.65;2.83;;;;;;;;;;6092731;23;20169;-93
2023/12/25 16:11:14;;;;;;;6.57;2.72;;;;;;;;;;6091647;23;20198;-92
2023/12/25 16:14:26;;;;;;;5.30;2.60;;;;;;;;;;6091132;23;20174;-89
2023/12/25 16:17:38;;;;;;;6.88;1.80;;;;;;;;;;6092362;23;20274;-92
2023/12/25 16:20:53;;;;;;;8.40;3.53;;;;;;;;;;6093020;23;20170;-91
2023/12/25 16:24:08;;;;;;;7.35;2.90;;;;;;;;;;6093603;23;20269;-92
2023/12/25 16:27:27;;;;;;;6.63;2.90;;;;;;;;;;6092726;23;20189;-90
2023/12/25 16:30:39;;;;;;;6.43;2.92;;;;;;;;;;6096361;23;20181;-89
2023/12/25 16:33:52;;;;;;;5.55;2.60;;;;;;;;;;6096731;23;20677;-90
2023/12/25 16:37:03;;;;;;;7.47;3.17;;;;;;;;;;6093823;23;20174;-91
2023/12/25 16:40:18;;;;;;;5.78;3.00;;;;;;;;;;6095858;23;20196;-92
2023/12/25 16:43:30;;;;;;;5.10;2.63;;;;;;;;;;6094351;23;20194;-91
2023/12/25 16:46:42;;;;;;;10.05;3.20;;;;;;;;;;6094875;23;20221;-90
2023/12/25 16:49:55;;;;;;;8.27;4.32;;;;;;;;;;6094496;23;20211;-92
2023/12/25 16:53:07;;;;;;;16.23;8.13;;;;;;;;;;6094281;23;20195;-92
2023/12/25 16:56:21;;;;;;;8.20;3.63;;;;;;;;;;6092659;23;20248;-91
2023/12/25 16:59:33;;;;;;;7.93;3.83;;;;;;;;;;6094890;23;20187;-94
2023/12/25 17:03:13;;;;;;;7.43;2.55;;;;;;;;;;6095162;23;20202;-93
2023/12/25 17:06:25;;;;;;;9.45;4.47;;;;;;;;;;6093913;23;20166;-91
2023/12/25 17:09:37;;;;;;;12.30;4.82;;;;;;;;;;6093598;23;20173;-89
2023/12/25 17:12:52;;;;;;;14.38;6.20;;;;;;;;;;6092679;23;20173;-93
2023/12/25 17:16:03;;;;;;;12.50;6.32;;;;;;;;;;6091967;23;20174;-90
2023/12/25 17:19:16;;;;;;;12.70;5.53;;;;;;;;;;6092757;23;20261;-90
2023/12/25 17:22:32;;;;;;;13.85;6.60;;;;;;;;;;6091140;23;20226;-91
2023/12/25 17:25:46;;;;;;;31.10;15.20;;;;;;;;;;6092754;23;20175;-92
2023/12/25 17:28:59;;;;;;;54.00;17.33;;;;;;;;;;6094159;23;20178;-92
2023/12/25 17:32:14;;;;;;;39.30;15.10;;;;;;;;;;6092699;23;20232;-88
2023/12/25 17:35:26;;;;;;;12.10;6.20;;;;;;;;;;6107792;23;20174;-90
2023/12/25 17:38:38;;;;;;;12.23;6.63;;;;;;;;;;6091791;23;20195;-92
2023/12/25 17:41:53;;;;;;;14.60;7.70;;;;;;;;;;6094041;23;20165;-90
2023/12/25 17:45:09;;;;;;;17.08;9.10;;;;;;;;;;6094521;23;20161;-92
2023/12/25 17:48:22;;;;;;;11.07;6.70;;;;;;;;;;6093503;23;20223;-88
2023/12/25 17:51:35;;;;;;;17.98;9.48;;;;;;;;;;6092850;23;20298;-91
2023/12/25 17:54:47;;;;;;;9.82;6.25;;;;;;;;;;6093616;23;20193;-92
2023/12/25 17:57:59;;;;;;;11.38;6.22;;;;;;;;;;6093022;23;20157;-91
2023/12/25 18:01:12;;;;;;;23.75;7.10;;;;;;;;;;6093931;23;20178;-88
2023/12/25 18:04:23;;;;;;;12.63;5.75;;;;;;;;;;6092807;23;20196;-92
2023/12/25 18:07:35;;;;;;;10.35;5.40;;;;;;;;;;6095239;23;20158;-89
2023/12/25 18:10:46;;;;;;;10.95;5.38;;;;;;;;;;6092614;23;20197;-93
2023/12/25 18:14:01;;;;;;;21.00;5.60;;;;;;;;;;6089549;23;20170;-88
2023/12/25 18:17:15;;;;;;;9.13;4.80;;;;;;;;;;6091000;23;20178;-90
2023/12/25 18:20:26;;;;;;;10.27;4.90;;;;;;;;;;6091083;23;20181;-91
2023/12/25 18:23:39;;;;;;;10.35;6.03;;;;;;;;;;6090827;23;20194;-92
2023/12/25 18:26:56;;;;;;;17.83;7.10;;;;;;;;;;6089855;23;20501;-91
2023/12/25 18:30:09;;;;;;;10.63;5.50;;;;;;;;;;6092018;23;20210;-91
2023/12/25 18:33:22;;;;;;;15.10;7.03;;;;;;;;;;6092728;23;20185;-89
2023/12/25 18:36:34;;;;;;;10.55;4.88;;;;;;;;;;6091384;23;20286;-91
2023/12/25 18:39:46;;;;;;;15.80;6.47;;;;;;;;;;6093734;23;20638;-90
2023/12/25 18:43:00;;;;;;;10.93;5.55;;;;;;;;;;6093073;23;20178;-92
2023/12/25 18:46:12;;;;;;;10.00;4.35;;;;;;;;;;6093343;23;20170;-91
2023/12/25 18:49:27;;;;;;;18.60;8.90;;;;;;;;;;6093054;23;20174;-92
2023/12/25 18:52:42;;;;;;;11.27;5.72;;;;;;;;;;6092163;23;20173;-90
2023/12/25 18:55:54;;;;;;;12.73;7.70;;;;;;;;;;6093304;23;20158;-89
2023/12/25 18:59:06;;;;;;;11.57;5.28;;;;;;;;;;6091544;23;20178;-90
2023/12/25 19:02:17;;;;;;;17.48;9.40;;;;;;;;;;6094458;23;20622;-89
2023/12/25 19:05:30;;;;;;;18.50;8.20;;;;;;;;;;6093162;23;20185;-89
2023/12/25 19:08:42;;;;;;;14.75;6.38;;;;;;;;;;6092967;23;20182;-87
2023/12/25 19:11:53;;;;;;;8.68;3.58;;;;;;;;;;6092254;23;20197;-89